sensor_id;sensor_type;location;lat;lon;timestamp;temperature;humidity
11619;DHT22;5865;48.776;9.280;2022-09-09T00:02:21;13.30;99.90
11619;DHT22;5865;48.776;9.280;2022-09-09T00:04:58;13.40;99.90
11619;DHT22;5865;48.776;9.280;2022-09-09T00:10:28;13.30;99.90
11619;DHT22;5865;48.776;9.280;2022-09-09T00:16:20;13.20;99.90
11619;DHT22;5865;48.776;9.280;2022-09-09T00:18:57;13.20;99.90
11619;DHT22;5865;48.776;9.280;2022-09-09T00:27:26;13.40;99.90
11619;DHT22;5865;48.776;9.280;2022-09-09T00:30:15;13.40;99.90
11619;DHT22;5865;48.776;9.280;2022-09-09T01:11:20;14.20;99.90
11619;DHT22;5865;48.776;9.280;2022-09-09T01:14:10;14.20;99.90
11619;DHT22;5865;48.776;9.280;2022-09-09T01:16:56;14.20;99.90
11619;DHT22;5865;48.776;9.280;2022-09-09T01:19:36;14.20;99.90
11619;DHT22;5865;48.776;9.280;2022-09-09T01:22:12;14.10;99.90
11619;DHT22;5865;48.776;9.280;2022-09-09T01:25:17;14.10;99.90
11619;DHT22;5865;48.776;9.280;2022-09-09T01:50:10;13.90;99.90
11619;DHT22;5865;48.776;9.280;2022-09-09T01:52:57;13.90;99.90
11619;DHT22;5865;48.776;9.280;2022-09-09T01:55:30;13.80;99.90
11619;DHT22;5865;48.776;9.280;2022-09-09T01:58:13;13.90;99.90
11619;DHT22;5865;48.776;9.280;2022-09-09T02:00:56;13.80;99.90
11619;DHT22;5865;48.776;9.280;2022-09-09T02:04:00;13.60;99.90
11619;DHT22;5865;48.776;9.280;2022-09-09T02:09:30;13.60;99.90
11619;DHT22;5865;48.776;9.280;2022-09-09T02:12:14;13.60;99.90
11619;DHT22;5865;48.776;9.280;2022-09-09T02:15:03;13.60;99.90
11619;DHT22;5865;48.776;9.280;2022-09-09T02:17:50;13.60;99.90
11619;DHT22;5865;48.776;9.280;2022-09-09T02:26:19;13.10;99.90
11619;DHT22;5865;48.776;9.280;2022-09-09T02:28:55;13.00;99.90
11619;DHT22;5865;48.776;9.280;2022-09-09T02:36:31;12.90;99.90
11619;DHT22;5865;48.776;9.280;2022-09-09T03:14:45;12.50;99.90
11619;DHT22;5865;48.776;9.280;2022-09-09T03:20:08;12.60;99.90
11619;DHT22;5865;48.776;9.280;2022-09-09T03:43:25;12.40;99.90
11619;DHT22;5865;48.776;9.280;2022-09-09T03:46:06;12.40;99.90
11619;DHT22;5865;48.776;9.280;2022-09-09T03:56:38;13.00;99.90
11619;DHT22;5865;48.776;9.280;2022-09-09T05:39:47;14.20;99.90
11619;DHT22;5865;48.776;9.280;2022-09-09T05:42:16;14.20;99.90
11619;DHT22;5865;48.776;9.280;2022-09-09T05:44:56;14.30;99.90
11619;DHT22;5865;48.776;9.280;2022-09-09T05:47:38;14.50;99.90
11619;DHT22;5865;48.776;9.280;2022-09-09T05:50:20;14.70;99.90
11619;DHT22;5865;48.776;9.280;2022-09-09T05:53:01;14.80;99.90
11619;DHT22;5865;48.776;9.280;2022-09-09T05:55:58;14.90;99.90
11619;DHT22;5865;48.776;9.280;2022-09-09T05:58:33;15.10;99.90
11619;DHT22;5865;48.776;9.280;2022-09-09T06:01:18;15.10;99.90
11619;DHT22;5865;48.776;9.280;2022-09-09T06:04:01;15.10;99.90
11619;DHT22;5865;48.776;9.280;2022-09-09T06:09:24;15.30;99.90
11619;DHT22;5865;48.776;9.280;2022-09-09T06:21:05;15.50;99.90
11619;DHT22;5865;48.776;9.280;2022-09-09T06:23:48;15.50;99.90
11619;DHT22;5865;48.776;9.280;2022-09-09T06:26:30;15.80;99.90
11619;DHT22;5865;48.776;9.280;2022-09-09T06:29:01;15.70;99.90
11619;DHT22;5865;48.776;9.280;2022-09-09T06:31:31;15.80;99.90
11619;DHT22;5865;48.776;9.280;2022-09-09T06:34:07;15.90;99.90
11619;DHT22;5865;48.776;9.280;2022-09-09T06:36:38;15.90;99.90
11619;DHT22;5865;48.776;9.280;2022-09-09T06:39:07;15.90;99.90
11619;DHT22;5865;48.776;9.280;2022-09-09T07:50:43;18.40;99.90
11619;DHT22;5865;48.776;9.280;2022-09-09T08:27:42;19.20;99.90
11619;DHT22;5865;48.776;9.280;2022-09-09T08:30:10;19.50;99.90
11619;DHT22;5865;48.776;9.280;2022-09-09T08:40:02;20.00;99.90
11619;DHT22;5865;48.776;9.280;2022-09-09T08:42:41;20.30;99.90
11619;DHT22;5865;48.776;9.280;2022-09-09T08:45:22;20.30;99.90
11619;DHT22;5865;48.776;9.280;2022-09-09T08:50:34;20.50;99.90
11619;DHT22;5865;48.776;9.280;2022-09-09T09:21:26;22.20;99.90
11619;DHT22;5865;48.776;9.280;2022-09-09T09:39:29;20.50;99.90
11619;DHT22;5865;48.776;9.280;2022-09-09T09:47:14;19.40;99.90
11619;DHT22;5865;48.776;9.280;2022-09-09T09:49:52;19.40;99.90
11619;DHT22;5865;48.776;9.280;2022-09-09T09:52:22;19.60;99.90
11619;DHT22;5865;48.776;9.280;2022-09-09T09:54:50;19.70;99.90
11619;DHT22;5865;48.776;9.280;2022-09-09T09:57:26;19.70;99.90
11619;DHT22;5865;48.776;9.280;2022-09-09T10:02:42;19.90;99.90
11619;DHT22;5865;48.776;9.280;2022-09-09T10:05:16;20.00;99.90
11619;DHT22;5865;48.776;9.280;2022-09-09T10:10:35;20.10;99.90
11619;DHT22;5865;48.776;9.280;2022-09-09T10:13:11;20.90;99.90
11619;DHT22;5865;48.776;9.280;2022-09-09T10:15:58;21.50;99.90
11619;DHT22;5865;48.776;9.280;2022-09-09T10:18:42;21.50;99.90
11619;DHT22;5865;48.776;9.280;2022-09-09T10:21:20;21.70;99.90
11619;DHT22;5865;48.776;9.280;2022-09-09T10:24:08;21.90;99.90
11619;DHT22;5865;48.776;9.280;2022-09-09T10:26:44;22.00;99.90
11619;DHT22;5865;48.776;9.280;2022-09-09T10:29:30;22.10;99.90
11619;DHT22;5865;48.776;9.280;2022-09-09T10:37:18;22.60;99.90
11619;DHT22;5865;48.776;9.280;2022-09-09T10:39:51;22.60;99.90
11619;DHT22;5865;48.776;9.280;2022-09-09T10:42:26;22.60;99.90
11619;DHT22;5865;48.776;9.280;2022-09-09T10:45:05;22.90;99.90
11619;DHT22;5865;48.776;9.280;2022-09-09T10:47:50;22.60;99.90
11619;DHT22;5865;48.776;9.280;2022-09-09T10:53:18;22.50;99.90
11619;DHT22;5865;48.776;9.280;2022-09-09T10:55:52;22.90;99.90
11619;DHT22;5865;48.776;9.280;2022-09-09T11:23:25;24.50;99.90
11619;DHT22;5865;48.776;9.280;2022-09-09T11:25:56;24.90;99.30
11619;DHT22;5865;48.776;9.280;2022-09-09T11:28:35;24.80;99.20
11619;DHT22;5865;48.776;9.280;2022-09-09T11:31:21;24.10;99.90
11619;DHT22;5865;48.776;9.280;2022-09-09T11:34:12;23.40;99.90
11619;DHT22;5865;48.776;9.280;2022-09-09T11:39:56;21.60;97.40
11619;DHT22;5865;48.776;9.280;2022-09-09T11:44:52;21.10;99.60
11619;DHT22;5865;48.776;9.280;2022-09-09T11:47:23;20.70;99.90
11619;DHT22;5865;48.776;9.280;2022-09-09T11:50:08;20.50;99.90
11619;DHT22;5865;48.776;9.280;2022-09-09T11:52:37;20.50;99.90
11619;DHT22;5865;48.776;9.280;2022-09-09T11:55:09;20.60;99.90
11619;DHT22;5865;48.776;9.280;2022-09-09T11:57:38;20.90;99.90
11619;DHT22;5865;48.776;9.280;2022-09-09T12:02:49;21.20;99.90
11619;DHT22;5865;48.776;9.280;2022-09-09T12:07:51;21.30;99.90
11619;DHT22;5865;48.776;9.280;2022-09-09T12:10:23;21.80;99.90
11619;DHT22;5865;48.776;9.280;2022-09-09T12:15:27;22.50;97.50
11619;DHT22;5865;48.776;9.280;2022-09-09T12:17:57;22.40;97.80
11619;DHT22;5865;48.776;9.280;2022-09-09T12:20:32;22.90;96.40
11619;DHT22;5865;48.776;9.280;2022-09-09T12:23:19;22.90;95.00
11619;DHT22;5865;48.776;9.280;2022-09-09T12:26:08;23.00;95.30
11619;DHT22;5865;48.776;9.280;2022-09-09T12:28:46;22.70;96.50
11619;DHT22;5865;48.776;9.280;2022-09-09T12:31:20;23.20;95.80
11619;DHT22;5865;48.776;9.280;2022-09-09T12:33:50;22.90;93.80
11619;DHT22;5865;48.776;9.280;2022-09-09T12:36:22;22.60;94.60
11619;DHT22;5865;48.776;9.280;2022-09-09T12:38:51;22.80;94.80
11619;DHT22;5865;48.776;9.280;2022-09-09T12:41:20;22.80;93.20
11619;DHT22;5865;48.776;9.280;2022-09-09T12:46:22;22.40;93.00
11619;DHT22;5865;48.776;9.280;2022-09-09T12:48:53;22.10;92.50
11619;DHT22;5865;48.776;9.280;2022-09-09T12:51:26;22.90;90.20
11619;DHT22;5865;48.776;9.280;2022-09-09T12:56:23;23.20;91.40
11619;DHT22;5865;48.776;9.280;2022-09-09T12:58:53;23.10;90.20
11619;DHT22;5865;48.776;9.280;2022-09-09T13:01:23;23.00;90.70
11619;DHT22;5865;48.776;9.280;2022-09-09T13:03:52;23.20;91.00
11619;DHT22;5865;48.776;9.280;2022-09-09T13:06:23;23.40;90.20
11619;DHT22;5865;48.776;9.280;2022-09-09T13:11:20;23.40;91.90
11619;DHT22;5865;48.776;9.280;2022-09-09T13:16:21;22.40;91.90
11619;DHT22;5865;48.776;9.280;2022-09-09T13:18:49;22.40;92.00
11619;DHT22;5865;48.776;9.280;2022-09-09T13:23:50;22.30;92.50
11619;DHT22;5865;48.776;9.280;2022-09-09T13:26:23;22.60;92.80
11619;DHT22;5865;48.776;9.280;2022-09-09T13:31:22;23.80;90.20
11619;DHT22;5865;48.776;9.280;2022-09-09T13:36:31;23.70;89.70
11619;DHT22;5865;48.776;9.280;2022-09-09T14:07:10;24.30;82.40
11619;DHT22;5865;48.776;9.280;2022-09-09T14:09:39;23.90;82.50
11619;DHT22;5865;48.776;9.280;2022-09-09T14:14:36;23.20;86.60
11619;DHT22;5865;48.776;9.280;2022-09-09T14:19:30;26.40;80.30
11619;DHT22;5865;48.776;9.280;2022-09-09T14:39:14;28.60;58.10
11619;DHT22;5865;48.776;9.280;2022-09-09T14:41:41;29.20;59.50
11619;DHT22;5865;48.776;9.280;2022-09-09T14:46:37;32.20;53.00
11619;DHT22;5865;48.776;9.280;2022-09-09T14:56:29;25.50;59.10
11619;DHT22;5865;48.776;9.280;2022-09-09T14:58:58;24.40;62.50
11619;DHT22;5865;48.776;9.280;2022-09-09T15:03:57;24.20;64.40
11619;DHT22;5865;48.776;9.280;2022-09-09T15:06:26;25.10;61.30
11619;DHT22;5865;48.776;9.280;2022-09-09T15:08:53;24.70;63.50
11619;DHT22;5865;48.776;9.280;2022-09-09T15:11:23;24.40;63.10
11619;DHT22;5865;48.776;9.280;2022-09-09T15:13:51;24.20;63.40
11619;DHT22;5865;48.776;9.280;2022-09-09T15:16:21;24.00;64.60
11619;DHT22;5865;48.776;9.280;2022-09-09T15:18:55;23.90;66.30
11619;DHT22;5865;48.776;9.280;2022-09-09T15:21:23;23.70;66.30
11619;DHT22;5865;48.776;9.280;2022-09-09T15:31:17;22.90;69.20
11619;DHT22;5865;48.776;9.280;2022-09-09T15:36:17;22.60;70.30
11619;DHT22;5865;48.776;9.280;2022-09-09T15:41:12;22.50;71.30
11619;DHT22;5865;48.776;9.280;2022-09-09T15:43:43;22.60;71.00
11619;DHT22;5865;48.776;9.280;2022-09-09T15:46:26;22.50;71.30
11619;DHT22;5865;48.776;9.280;2022-09-09T15:48:54;22.50;71.10
11619;DHT22;5865;48.776;9.280;2022-09-09T15:58:50;21.60;74.00
11619;DHT22;5865;48.776;9.280;2022-09-09T16:01:18;21.30;74.70
11619;DHT22;5865;48.776;9.280;2022-09-09T16:03:45;21.50;77.50
11619;DHT22;5865;48.776;9.280;2022-09-09T16:06:13;21.20;76.60
11619;DHT22;5865;48.776;9.280;2022-09-09T16:08:43;21.10;75.10
11619;DHT22;5865;48.776;9.280;2022-09-09T16:11:13;21.20;75.60
11619;DHT22;5865;48.776;9.280;2022-09-09T16:13:41;21.10;75.60
11619;DHT22;5865;48.776;9.280;2022-09-09T16:16:10;21.00;77.20
11619;DHT22;5865;48.776;9.280;2022-09-09T16:18:39;21.00;76.30
11619;DHT22;5865;48.776;9.280;2022-09-09T16:21:06;20.90;76.20
11619;DHT22;5865;48.776;9.280;2022-09-09T16:23:34;20.90;77.00
11619;DHT22;5865;48.776;9.280;2022-09-09T16:35:53;20.60;79.00
11619;DHT22;5865;48.776;9.280;2022-09-09T16:40:47;20.50;79.30
11619;DHT22;5865;48.776;9.280;2022-09-09T16:45:44;20.40;80.40
11619;DHT22;5865;48.776;9.280;2022-09-09T16:48:12;20.40;81.30
11619;DHT22;5865;48.776;9.280;2022-09-09T16:53:06;20.20;84.10
11619;DHT22;5865;48.776;9.280;2022-09-09T16:55:38;20.00;85.30
11619;DHT22;5865;48.776;9.280;2022-09-09T16:58:06;19.90;86.70
11619;DHT22;5865;48.776;9.280;2022-09-09T17:00:35;19.90;86.90
11619;DHT22;5865;48.776;9.280;2022-09-09T17:03:10;19.70;86.70
11619;DHT22;5865;48.776;9.280;2022-09-09T17:15:52;19.20;85.10
11619;DHT22;5865;48.776;9.280;2022-09-09T17:18:18;18.90;85.60
11619;DHT22;5865;48.776;9.280;2022-09-09T17:20:46;18.90;85.80
11619;DHT22;5865;48.776;9.280;2022-09-09T17:23:13;18.70;86.50
11619;DHT22;5865;48.776;9.280;2022-09-09T17:25:41;18.40;88.60
11619;DHT22;5865;48.776;9.280;2022-09-09T17:28:08;18.40;88.50
11619;DHT22;5865;48.776;9.280;2022-09-09T17:30:36;18.20;90.40
11619;DHT22;5865;48.776;9.280;2022-09-09T17:35:32;18.00;91.90
11619;DHT22;5865;48.776;9.280;2022-09-09T17:37:59;17.90;92.10
11619;DHT22;5865;48.776;9.280;2022-09-09T17:40:27;17.80;92.30
11619;DHT22;5865;48.776;9.280;2022-09-09T17:42:55;17.70;93.20
11619;DHT22;5865;48.776;9.280;2022-09-09T17:45:22;17.80;93.60
11619;DHT22;5865;48.776;9.280;2022-09-09T17:47:54;17.80;94.80
11619;DHT22;5865;48.776;9.280;2022-09-09T17:50:24;18.00;95.20
11619;DHT22;5865;48.776;9.280;2022-09-09T17:55:18;18.00;95.60
11619;DHT22;5865;48.776;9.280;2022-09-09T17:57:47;17.90;96.50
11619;DHT22;5865;48.776;9.280;2022-09-09T18:00:14;17.90;97.30
11619;DHT22;5865;48.776;9.280;2022-09-09T18:05:10;17.70;98.10
11619;DHT22;5865;48.776;9.280;2022-09-09T18:10:06;17.30;99.90
11619;DHT22;5865;48.776;9.280;2022-09-09T18:12:33;17.20;99.90
11619;DHT22;5865;48.776;9.280;2022-09-09T18:17:27;16.90;99.90
11619;DHT22;5865;48.776;9.280;2022-09-09T18:22:22;17.10;99.90
11619;DHT22;5865;48.776;9.280;2022-09-09T18:24:50;17.20;99.90
11619;DHT22;5865;48.776;9.280;2022-09-09T18:27:18;17.20;99.90
11619;DHT22;5865;48.776;9.280;2022-09-09T18:29:45;17.10;99.90
11619;DHT22;5865;48.776;9.280;2022-09-09T18:32:11;17.10;99.90
11619;DHT22;5865;48.776;9.280;2022-09-09T18:37:06;16.90;99.90
11619;DHT22;5865;48.776;9.280;2022-09-09T18:42:06;16.90;99.90
11619;DHT22;5865;48.776;9.280;2022-09-09T18:44:34;16.90;99.90
11619;DHT22;5865;48.776;9.280;2022-09-09T18:49:29;17.90;99.90
11619;DHT22;5865;48.776;9.280;2022-09-09T18:51:58;16.90;99.90
11619;DHT22;5865;48.776;9.280;2022-09-09T18:54:27;17.00;99.90
11619;DHT22;5865;48.776;9.280;2022-09-09T18:59:23;16.90;99.90
11619;DHT22;5865;48.776;9.280;2022-09-09T19:01:52;16.70;99.90
11619;DHT22;5865;48.776;9.280;2022-09-09T19:04:19;16.70;99.90
11619;DHT22;5865;48.776;9.280;2022-09-09T19:06:48;16.60;99.90
11619;DHT22;5865;48.776;9.280;2022-09-09T19:09:17;16.60;99.90
11619;DHT22;5865;48.776;9.280;2022-09-09T19:11:44;16.50;99.90
11619;DHT22;5865;48.776;9.280;2022-09-09T19:14:13;16.40;99.90
11619;DHT22;5865;48.776;9.280;2022-09-09T19:16:43;16.30;99.90
11619;DHT22;5865;48.776;9.280;2022-09-09T19:19:13;16.20;99.90
11619;DHT22;5865;48.776;9.280;2022-09-09T19:21:40;16.10;99.90
11619;DHT22;5865;48.776;9.280;2022-09-09T19:24:12;16.10;99.90
11619;DHT22;5865;48.776;9.280;2022-09-09T19:26:42;16.00;99.90
11619;DHT22;5865;48.776;9.280;2022-09-09T19:29:11;15.90;99.90
11619;DHT22;5865;48.776;9.280;2022-09-09T19:31:40;15.90;99.90
11619;DHT22;5865;48.776;9.280;2022-09-09T19:34:09;15.90;99.90
11619;DHT22;5865;48.776;9.280;2022-09-09T19:39:04;15.70;99.90
11619;DHT22;5865;48.776;9.280;2022-09-09T19:44:01;15.70;99.90
11619;DHT22;5865;48.776;9.280;2022-09-09T19:46:29;15.70;99.90
11619;DHT22;5865;48.776;9.280;2022-09-09T19:48:57;15.60;99.90
11619;DHT22;5865;48.776;9.280;2022-09-09T19:51:28;15.40;99.90
11619;DHT22;5865;48.776;9.280;2022-09-09T19:53:57;15.40;99.90
11619;DHT22;5865;48.776;9.280;2022-09-09T19:56:26;15.30;99.90
11619;DHT22;5865;48.776;9.280;2022-09-09T19:58:53;15.40;99.90
11619;DHT22;5865;48.776;9.280;2022-09-09T20:01:22;15.20;99.90
11619;DHT22;5865;48.776;9.280;2022-09-09T20:03:50;15.10;99.90
11619;DHT22;5865;48.776;9.280;2022-09-09T20:06:20;15.10;99.90
11619;DHT22;5865;48.776;9.280;2022-09-09T20:16:17;14.70;99.90
11619;DHT22;5865;48.776;9.280;2022-09-09T20:18:46;14.70;99.90
11619;DHT22;5865;48.776;9.280;2022-09-09T20:21:17;14.90;99.90
11619;DHT22;5865;48.776;9.280;2022-09-09T20:26:15;14.80;99.90
11619;DHT22;5865;48.776;9.280;2022-09-09T20:28:43;14.80;99.90
11619;DHT22;5865;48.776;9.280;2022-09-09T20:31:13;14.70;99.90
11619;DHT22;5865;48.776;9.280;2022-09-09T20:33:41;14.70;99.90
11619;DHT22;5865;48.776;9.280;2022-09-09T20:36:09;14.70;99.90
11619;DHT22;5865;48.776;9.280;2022-09-09T20:38:40;14.60;99.90
11619;DHT22;5865;48.776;9.280;2022-09-09T20:43:44;14.40;99.90
11619;DHT22;5865;48.776;9.280;2022-09-09T20:46:13;14.50;99.90
11619;DHT22;5865;48.776;9.280;2022-09-09T20:48:41;14.50;99.90
11619;DHT22;5865;48.776;9.280;2022-09-09T20:51:08;14.50;99.90
11619;DHT22;5865;48.776;9.280;2022-09-09T20:58:33;14.50;99.90
11619;DHT22;5865;48.776;9.280;2022-09-09T21:01:02;14.70;99.90
11619;DHT22;5865;48.776;9.280;2022-09-09T21:03:32;14.70;99.90
11619;DHT22;5865;48.776;9.280;2022-09-09T21:08:30;14.70;99.90
11619;DHT22;5865;48.776;9.280;2022-09-09T21:13:27;14.70;99.90
11619;DHT22;5865;48.776;9.280;2022-09-09T21:16:12;14.60;99.90
11619;DHT22;5865;48.776;9.280;2022-09-09T21:23:36;14.70;99.90
11619;DHT22;5865;48.776;9.280;2022-09-09T21:26:04;14.70;99.90
11619;DHT22;5865;48.776;9.280;2022-09-09T21:33:28;14.40;99.90
11619;DHT22;5865;48.776;9.280;2022-09-09T21:36:01;14.30;99.90
11619;DHT22;5865;48.776;9.280;2022-09-09T21:38:28;14.30;99.90
11619;DHT22;5865;48.776;9.280;2022-09-09T21:45:51;14.20;99.90
11619;DHT22;5865;48.776;9.280;2022-09-09T21:50:47;14.10;99.90
11619;DHT22;5865;48.776;9.280;2022-09-09T21:53:16;14.00;99.90
11619;DHT22;5865;48.776;9.280;2022-09-09T21:55:46;14.00;99.90
11619;DHT22;5865;48.776;9.280;2022-09-09T21:58:14;13.90;99.90
11619;DHT22;5865;48.776;9.280;2022-09-09T22:00:43;13.90;99.90
11619;DHT22;5865;48.776;9.280;2022-09-09T22:03:12;13.90;99.90
11619;DHT22;5865;48.776;9.280;2022-09-09T22:05:40;14.00;99.90
11619;DHT22;5865;48.776;9.280;2022-09-09T22:08:09;13.90;99.90
11619;DHT22;5865;48.776;9.280;2022-09-09T22:10:37;13.80;99.90
11619;DHT22;5865;48.776;9.280;2022-09-09T22:13:05;13.80;99.90
11619;DHT22;5865;48.776;9.280;2022-09-09T22:15:32;13.90;99.90
11619;DHT22;5865;48.776;9.280;2022-09-09T22:20:30;14.00;99.90
11619;DHT22;5865;48.776;9.280;2022-09-09T22:23:14;14.10;99.90
11619;DHT22;5865;48.776;9.280;2022-09-09T22:38:19;14.60;99.90
11619;DHT22;5865;48.776;9.280;2022-09-09T22:40:48;14.70;99.90
11619;DHT22;5865;48.776;9.280;2022-09-09T22:43:18;14.80;99.90
11619;DHT22;5865;48.776;9.280;2022-09-09T22:45:45;14.80;99.90
11619;DHT22;5865;48.776;9.280;2022-09-09T22:53:24;15.10;99.90
11619;DHT22;5865;48.776;9.280;2022-09-09T22:55:57;15.20;99.90
11619;DHT22;5865;48.776;9.280;2022-09-09T22:58:30;15.20;99.90
11619;DHT22;5865;48.776;9.280;2022-09-09T23:00:59;15.30;99.90
11619;DHT22;5865;48.776;9.280;2022-09-09T23:08:31;15.30;99.90
11619;DHT22;5865;48.776;9.280;2022-09-09T23:13:27;15.30;99.90
11619;DHT22;5865;48.776;9.280;2022-09-09T23:15:57;15.30;99.90
11619;DHT22;5865;48.776;9.280;2022-09-09T23:21:06;15.40;99.90
11619;DHT22;5865;48.776;9.280;2022-09-09T23:23:34;15.40;99.90
11619;DHT22;5865;48.776;9.280;2022-09-09T23:26:02;15.40;99.90
11619;DHT22;5865;48.776;9.280;2022-09-09T23:28:30;15.40;99.90
11619;DHT22;5865;48.776;9.280;2022-09-09T23:30:57;15.50;99.90
11619;DHT22;5865;48.776;9.280;2022-09-09T23:33:24;15.40;99.90
11619;DHT22;5865;48.776;9.280;2022-09-09T23:35:58;15.30;99.90
11619;DHT22;5865;48.776;9.280;2022-09-09T23:38:25;15.30;99.90
11619;DHT22;5865;48.776;9.280;2022-09-09T23:40:54;15.30;99.90
11619;DHT22;5865;48.776;9.280;2022-09-09T23:43:21;15.30;99.90
11619;DHT22;5865;48.776;9.280;2022-09-09T23:45:50;15.20;99.90
11619;DHT22;5865;48.776;9.280;2022-09-09T23:48:17;15.20;99.90
11619;DHT22;5865;48.776;9.280;2022-09-09T23:50:44;14.90;99.90
11619;DHT22;5865;48.776;9.280;2022-09-09T23:53:11;14.80;99.90
11619;DHT22;5865;48.776;9.280;2022-09-09T23:58:07;14.60;99.90
